Home > Products > Valid Products > TAF

000
FTUS43 KIWX 260500
TAFFWA
TAF
KFWA 260520Z 2606/2706 28006KT P6SM SKC=



000
FTUS43 KIWX 260500
TAFFWA
TAF
KFWA 260520Z 2606/2706 28006KT P6SM SKC=



000
FTUS43 KIWX 252300
TAFFWA
TAF
KFWA 252320Z 2600/2624 28006KT P6SM SKC=



000
FTUS43 KIWX 251700
TAFFWA
TAF
KFWA 251729Z 2518/2618 28014G19KT P6SM FEW035
     FM260000 29007KT P6SM SKC=



000
FTUS43 KIWX 251300 AAA
TAFFWA
TAF AMD
KFWA 251356Z 2514/2612 23006KT 5SM BR BKN200
     FM251500 25008KT P6SM SCT025
     FM251700 28012G19KT P6SM SCT025
     FM260000 29006KT P6SM FEW250=



000
FTUS43 KIWX 251100
TAFFWA
TAF
KFWA 251120Z 2512/2612 22008KT P6SM BKN040
     FM251400 25008KT P6SM BKN025
     FM251700 28012G19KT P6SM SCT025
     FM260000 29006KT P6SM FEW250=



000
FTUS43 KIWX 251100
TAFFWA
TAF
KFWA 251120Z 2512/2612 22008KT P6SM BKN040
     FM251400 25008KT P6SM BKN025
     FM251700 28012G19KT P6SM SCT025
     FM260000 29006KT P6SM FEW250=



000
FTUS43 KIWX 250500
TAFFWA
TAF
KFWA 250520Z 2506/2606 22006KT 6SM BR SCT080 BKN200
     FM251200 24006KT 5SM BR SCT015 BKN030
     FM251700 28012G18KT P6SM SCT025
     FM260000 29006KT P6SM FEW250=



000
FTUS43 KIWX 242300
TAFFWA
TAF
KFWA 242320Z 2500/2524 23006KT P6SM SCT035
     FM251000 24006KT 3SM BR OVC015
     FM251700 27012KT P6SM SCT025=



000
FTUS43 KIWX 241700
TAFFWA
TAF
KFWA 241724Z 2418/2518 22007KT P6SM BKN030
     FM241900 22006KT P6SM SCT035
     FM250900 22006KT 5SM BR OVC015
     FM251700 27010KT P6SM BKN025=



000
FTUS43 KIWX 241100
TAFFWA
TAF
KFWA 241120Z 2412/2512 23003KT P6SM VCSH SCT025 BKN040
     FM241400 23007KT P6SM BKN030
     FM242000 22006KT P6SM SCT030 BKN250=



000
FTUS43 KIWX 240500
TAFFWA
TAF
KFWA 240520Z 2406/2506 VRB02KT P6SM BKN200
     FM240800 19003KT 5SM BR SCT050 BKN150
     FM241300 23005KT P6SM BKN040
     FM241600 22007KT P6SM BKN030
     FM242100 22005KT P6SM SCT030 BKN250=



000
FTUS43 KIWX 232300
TAFFWA
TAF
KFWA 232320Z 2400/2424 20003KT P6SM BKN150
     FM240800 19003KT 5SM BR BKN150
     FM241400 23007KT P6SM BKN035
     FM241800 22005KT P6SM BKN025=



000
FTUS43 KIWX 231700
TAFFWA
TAF
KFWA 231734Z 2318/2418 21005KT P6SM SCT250
     FM240800 19003KT 5SM BR BKN150
     FM241400 23007KT P6SM BKN035=



000
FTUS43 KIWX 231100
TAFFWA
TAF
KFWA 231130Z 2312/2412 00000KT 1/4SM FZFG VV002
      TEMPO 2312/2314 1SM BR BKN003
     FM231400 19003KT 4SM BR SCT015
     FM231600 21004KT P6SM SCT250=



000
FTUS43 KIWX 231000 AAC
TAFFWA
TAF AMD
KFWA 231055Z 2311/2406 00000KT 1/4SM FZFG VV002
      TEMPO 2312/2314 1SM BR BKN003
     FM231400 19003KT 4SM BR SCT015
     FM231600 21004KT P6SM SCT250
     FM240300 21004KT P6SM BKN250=



000
FTUS43 KIWX 230800 AAB
TAFFWA
TAF AMD
KFWA 230848Z 2309/2406 00000KT 2SM BR SCT002
      TEMPO 2309/2312 3/4SM BR VV002
     FM231500 24005KT P6SM SCT025
     FM240300 21004KT P6SM BKN250=



000
FTUS43 KIWX 230700 AAA
TAFFWA
TAF AMD
KFWA 230758Z 2308/2406 00000KT 3SM BR SCT004
      TEMPO 2308/2312 3/4SM BR SCT010
     FM231500 24005KT P6SM SCT025
     FM240300 21004KT P6SM BKN250=



    US Dept of Commerce
    National Oceanic and Atmospheric Administration
    National Weather Service
    1325 East West Highway
    Silver Spring, MD 20910
    Page Author: NWS Internet Services Team
Disclaimer
Information Quality
Credits
Glossary
Privacy Policy
Freedom of Information Act (FOIA)
About Us
Career Opportunities